sensor_id;sensor_type;location;lat;lon;timestamp;temperature;humidity
78696;SHT31;68030;51.980;5.646;2024-02-28T00:01:25;6.9;66.9
78696;SHT31;68030;51.980;5.646;2024-02-28T00:03:53;6.9;67.0
78696;SHT31;68030;51.980;5.646;2024-02-28T00:06:22;6.9;67.1
78696;SHT31;68030;51.980;5.646;2024-02-28T00:08:53;6.9;67.1
78696;SHT31;68030;51.980;5.646;2024-02-28T00:11:21;6.9;67.0
78696;SHT31;68030;51.980;5.646;2024-02-28T00:13:50;6.9;66.8
78696;SHT31;68030;51.980;5.646;2024-02-28T00:16:19;6.9;66.8
78696;SHT31;68030;51.980;5.646;2024-02-28T00:18:48;6.9;66.8
78696;SHT31;68030;51.980;5.646;2024-02-28T00:21:16;6.9;66.8
78696;SHT31;68030;51.980;5.646;2024-02-28T00:23:45;6.9;66.9
78696;SHT31;68030;51.980;5.646;2024-02-28T00:26:14;6.9;66.8
78696;SHT31;68030;51.980;5.646;2024-02-28T00:28:42;6.9;66.8
78696;SHT31;68030;51.980;5.646;2024-02-28T00:31:11;6.9;67.1
78696;SHT31;68030;51.980;5.646;2024-02-28T00:33:39;6.9;67.2
78696;SHT31;68030;51.980;5.646;2024-02-28T00:36:08;6.9;67.3
78696;SHT31;68030;51.980;5.646;2024-02-28T00:38:36;6.9;67.3
78696;SHT31;68030;51.980;5.646;2024-02-28T00:41:05;6.9;67.2
78696;SHT31;68030;51.980;5.646;2024-02-28T00:43:33;6.9;67.2
78696;SHT31;68030;51.980;5.646;2024-02-28T00:46:02;6.9;67.2
78696;SHT31;68030;51.980;5.646;2024-02-28T00:48:35;6.9;67.1
78696;SHT31;68030;51.980;5.646;2024-02-28T00:51:04;7.0;66.9
78696;SHT31;68030;51.980;5.646;2024-02-28T00:53:34;7.0;66.8
78696;SHT31;68030;51.980;5.646;2024-02-28T00:56:03;7.0;66.8
78696;SHT31;68030;51.980;5.646;2024-02-28T00:58:32;7.0;66.9
78696;SHT31;68030;51.980;5.646;2024-02-28T01:01:01;7.0;66.9
78696;SHT31;68030;51.980;5.646;2024-02-28T01:03:29;7.0;66.8
78696;SHT31;68030;51.980;5.646;2024-02-28T01:05:58;7.0;66.8
78696;SHT31;68030;51.980;5.646;2024-02-28T01:08:27;7.0;66.9
78696;SHT31;68030;51.980;5.646;2024-02-28T01:10:56;7.0;66.9
78696;SHT31;68030;51.980;5.646;2024-02-28T01:13:25;7.0;66.9
78696;SHT31;68030;51.980;5.646;2024-02-28T01:15:53;7.0;67.0
78696;SHT31;68030;51.980;5.646;2024-02-28T01:18:22;7.0;67.2
78696;SHT31;68030;51.980;5.646;2024-02-28T01:20:51;7.0;67.2
78696;SHT31;68030;51.980;5.646;2024-02-28T01:23:20;7.1;67.0
78696;SHT31;68030;51.980;5.646;2024-02-28T01:25:49;7.1;66.6
78696;SHT31;68030;51.980;5.646;2024-02-28T01:28:17;7.1;66.2
78696;SHT31;68030;51.980;5.646;2024-02-28T01:30:46;7.0;66.4
78696;SHT31;68030;51.980;5.646;2024-02-28T01:33:15;7.0;66.1
78696;SHT31;68030;51.980;5.646;2024-02-28T01:35:43;7.0;66.2
78696;SHT31;68030;51.980;5.646;2024-02-28T01:38:11;7.0;66.5
78696;SHT31;68030;51.980;5.646;2024-02-28T01:40:43;7.0;66.7
78696;SHT31;68030;51.980;5.646;2024-02-28T01:43:13;7.0;66.9
78696;SHT31;68030;51.980;5.646;2024-02-28T01:45:44;7.0;67.1
78696;SHT31;68030;51.980;5.646;2024-02-28T01:48:13;6.9;67.2
78696;SHT31;68030;51.980;5.646;2024-02-28T01:50:41;6.9;67.0
78696;SHT31;68030;51.980;5.646;2024-02-28T01:53:10;6.9;67.4
78696;SHT31;68030;51.980;5.646;2024-02-28T01:55:40;6.9;67.4
78696;SHT31;68030;51.980;5.646;2024-02-28T01:58:11;6.9;67.5
78696;SHT31;68030;51.980;5.646;2024-02-28T02:00:40;6.9;67.5
78696;SHT31;68030;51.980;5.646;2024-02-28T02:03:09;7.0;67.7
78696;SHT31;68030;51.980;5.646;2024-02-28T02:05:37;7.0;67.6
78696;SHT31;68030;51.980;5.646;2024-02-28T02:08:07;7.0;67.7
78696;SHT31;68030;51.980;5.646;2024-02-28T02:10:35;7.0;67.7
78696;SHT31;68030;51.980;5.646;2024-02-28T02:13:07;7.0;67.7
78696;SHT31;68030;51.980;5.646;2024-02-28T02:15:36;7.0;67.2
78696;SHT31;68030;51.980;5.646;2024-02-28T02:18:06;7.0;67.0
78696;SHT31;68030;51.980;5.646;2024-02-28T02:20:41;7.0;66.8
78696;SHT31;68030;51.980;5.646;2024-02-28T02:23:13;7.0;66.9
78696;SHT31;68030;51.980;5.646;2024-02-28T02:25:46;7.0;67.0
78696;SHT31;68030;51.980;5.646;2024-02-28T02:28:15;7.0;66.7
78696;SHT31;68030;51.980;5.646;2024-02-28T02:30:46;7.0;66.7
78696;SHT31;68030;51.980;5.646;2024-02-28T02:33:15;7.0;66.7
78696;SHT31;68030;51.980;5.646;2024-02-28T02:35:45;7.0;66.9
78696;SHT31;68030;51.980;5.646;2024-02-28T02:38:14;7.0;66.7
78696;SHT31;68030;51.980;5.646;2024-02-28T02:40:42;7.0;66.7
78696;SHT31;68030;51.980;5.646;2024-02-28T02:43:12;7.0;66.8
78696;SHT31;68030;51.980;5.646;2024-02-28T02:45:40;6.9;66.9
78696;SHT31;68030;51.980;5.646;2024-02-28T02:48:09;6.9;67.0
78696;SHT31;68030;51.980;5.646;2024-02-28T02:50:38;6.9;67.0
78696;SHT31;68030;51.980;5.646;2024-02-28T02:53:08;6.9;66.9
78696;SHT31;68030;51.980;5.646;2024-02-28T02:55:37;6.9;66.9
78696;SHT31;68030;51.980;5.646;2024-02-28T02:58:06;6.9;66.6
78696;SHT31;68030;51.980;5.646;2024-02-28T03:00:34;6.9;66.5
78696;SHT31;68030;51.980;5.646;2024-02-28T03:03:03;6.9;66.6
78696;SHT31;68030;51.980;5.646;2024-02-28T03:05:32;6.9;67.0
78696;SHT31;68030;51.980;5.646;2024-02-28T03:08:00;6.8;67.2
78696;SHT31;68030;51.980;5.646;2024-02-28T03:10:29;6.8;67.0
78696;SHT31;68030;51.980;5.646;2024-02-28T03:12:57;6.8;66.9
78696;SHT31;68030;51.980;5.646;2024-02-28T03:15:29;6.8;66.7
78696;SHT31;68030;51.980;5.646;2024-02-28T03:17:57;6.8;66.7
78696;SHT31;68030;51.980;5.646;2024-02-28T03:20:26;6.8;66.9
78696;SHT31;68030;51.980;5.646;2024-02-28T03:22:54;6.7;66.8
78696;SHT31;68030;51.980;5.646;2024-02-28T03:25:23;6.7;66.7
78696;SHT31;68030;51.980;5.646;2024-02-28T03:27:51;6.7;66.6
78696;SHT31;68030;51.980;5.646;2024-02-28T03:30:21;6.7;66.4
78696;SHT31;68030;51.980;5.646;2024-02-28T03:32:50;6.6;66.2
78696;SHT31;68030;51.980;5.646;2024-02-28T03:35:18;6.6;66.3
78696;SHT31;68030;51.980;5.646;2024-02-28T03:37:47;6.6;66.5
78696;SHT31;68030;51.980;5.646;2024-02-28T03:40:15;6.5;66.6
78696;SHT31;68030;51.980;5.646;2024-02-28T03:42:44;6.5;66.7
78696;SHT31;68030;51.980;5.646;2024-02-28T03:45:12;6.5;66.8
78696;SHT31;68030;51.980;5.646;2024-02-28T03:47:41;6.4;66.8
78696;SHT31;68030;51.980;5.646;2024-02-28T03:50:09;6.4;67.0
78696;SHT31;68030;51.980;5.646;2024-02-28T03:52:38;6.4;67.1
78696;SHT31;68030;51.980;5.646;2024-02-28T03:55:08;6.3;67.2
78696;SHT31;68030;51.980;5.646;2024-02-28T03:57:37;6.3;67.5
78696;SHT31;68030;51.980;5.646;2024-02-28T04:00:06;6.3;67.5
78696;SHT31;68030;51.980;5.646;2024-02-28T04:02:35;6.3;67.4
78696;SHT31;68030;51.980;5.646;2024-02-28T04:05:05;6.2;67.3
78696;SHT31;68030;51.980;5.646;2024-02-28T04:07:33;6.2;67.3
78696;SHT31;68030;51.980;5.646;2024-02-28T04:10:02;6.2;67.2
78696;SHT31;68030;51.980;5.646;2024-02-28T04:12:32;6.2;67.2
78696;SHT31;68030;51.980;5.646;2024-02-28T04:15:00;6.2;67.2
78696;SHT31;68030;51.980;5.646;2024-02-28T04:17:31;6.2;67.1
78696;SHT31;68030;51.980;5.646;2024-02-28T04:20:00;6.1;67.2
78696;SHT31;68030;51.980;5.646;2024-02-28T04:22:31;6.1;67.3
78696;SHT31;68030;51.980;5.646;2024-02-28T04:25:00;6.1;67.4
78696;SHT31;68030;51.980;5.646;2024-02-28T04:27:28;6.1;67.7
78696;SHT31;68030;51.980;5.646;2024-02-28T04:29:57;6.1;67.6
78696;SHT31;68030;51.980;5.646;2024-02-28T04:32:26;6.1;67.8
78696;SHT31;68030;51.980;5.646;2024-02-28T04:34:54;6.1;67.8
78696;SHT31;68030;51.980;5.646;2024-02-28T04:37:23;6.1;67.9
78696;SHT31;68030;51.980;5.646;2024-02-28T04:39:51;6.1;68.1
78696;SHT31;68030;51.980;5.646;2024-02-28T04:42:20;6.1;68.3
78696;SHT31;68030;51.980;5.646;2024-02-28T04:44:48;6.1;68.4
78696;SHT31;68030;51.980;5.646;2024-02-28T04:47:17;6.1;68.5
78696;SHT31;68030;51.980;5.646;2024-02-28T04:49:45;6.1;68.7
78696;SHT31;68030;51.980;5.646;2024-02-28T04:52:16;6.1;68.8
78696;SHT31;68030;51.980;5.646;2024-02-28T04:54:44;6.2;68.8
78696;SHT31;68030;51.980;5.646;2024-02-28T04:57:13;6.2;68.7
78696;SHT31;68030;51.980;5.646;2024-02-28T04:59:45;6.2;68.8
78696;SHT31;68030;51.980;5.646;2024-02-28T05:02:13;6.2;68.8
78696;SHT31;68030;51.980;5.646;2024-02-28T05:04:43;6.3;68.7
78696;SHT31;68030;51.980;5.646;2024-02-28T05:07:12;6.3;68.7
78696;SHT31;68030;51.980;5.646;2024-02-28T05:09:40;6.3;68.3
78696;SHT31;68030;51.980;5.646;2024-02-28T05:12:11;6.3;68.2
78696;SHT31;68030;51.980;5.646;2024-02-28T05:14:40;6.4;68.0
78696;SHT31;68030;51.980;5.646;2024-02-28T05:17:08;6.4;67.8
78696;SHT31;68030;51.980;5.646;2024-02-28T05:19:39;6.4;67.7
78696;SHT31;68030;51.980;5.646;2024-02-28T05:22:08;6.4;67.6
78696;SHT31;68030;51.980;5.646;2024-02-28T05:24:38;6.4;67.3
78696;SHT31;68030;51.980;5.646;2024-02-28T05:27:08;6.4;67.4
78696;SHT31;68030;51.980;5.646;2024-02-28T05:29:37;6.4;67.4
78696;SHT31;68030;51.980;5.646;2024-02-28T05:32:07;6.4;67.4
78696;SHT31;68030;51.980;5.646;2024-02-28T05:34:36;6.4;67.4
78696;SHT31;68030;51.980;5.646;2024-02-28T05:37:07;6.4;67.4
78696;SHT31;68030;51.980;5.646;2024-02-28T05:39:35;6.5;67.4
78696;SHT31;68030;51.980;5.646;2024-02-28T05:42:04;6.5;67.5
78696;SHT31;68030;51.980;5.646;2024-02-28T05:44:34;6.5;67.5
78696;SHT31;68030;51.980;5.646;2024-02-28T05:47:02;6.5;67.5
78696;SHT31;68030;51.980;5.646;2024-02-28T05:49:33;6.5;67.7
78696;SHT31;68030;51.980;5.646;2024-02-28T05:52:04;6.5;67.9
78696;SHT31;68030;51.980;5.646;2024-02-28T05:54:32;6.5;68.1
78696;SHT31;68030;51.980;5.646;2024-02-28T05:57:02;6.5;68.0
78696;SHT31;68030;51.980;5.646;2024-02-28T05:59:31;6.5;67.9
78696;SHT31;68030;51.980;5.646;2024-02-28T06:01:59;6.6;67.8
78696;SHT31;68030;51.980;5.646;2024-02-28T06:04:28;6.6;67.6
78696;SHT31;68030;51.980;5.646;2024-02-28T06:06:56;6.6;67.7
78696;SHT31;68030;51.980;5.646;2024-02-28T06:09:25;6.6;67.6
78696;SHT31;68030;51.980;5.646;2024-02-28T06:11:54;6.6;67.6
78696;SHT31;68030;51.980;5.646;2024-02-28T06:14:23;6.7;67.4
78696;SHT31;68030;51.980;5.646;2024-02-28T06:16:52;6.7;67.5
78696;SHT31;68030;51.980;5.646;2024-02-28T06:19:21;6.7;67.6
78696;SHT31;68030;51.980;5.646;2024-02-28T06:21:50;6.7;67.6
78696;SHT31;68030;51.980;5.646;2024-02-28T06:24:18;6.7;67.6
78696;SHT31;68030;51.980;5.646;2024-02-28T06:26:47;6.7;67.7
78696;SHT31;68030;51.980;5.646;2024-02-28T06:29:15;6.8;67.6
78696;SHT31;68030;51.980;5.646;2024-02-28T06:31:44;6.8;67.4
78696;SHT31;68030;51.980;5.646;2024-02-28T06:34:12;6.8;67.2
78696;SHT31;68030;51.980;5.646;2024-02-28T06:36:41;6.9;67.1
78696;SHT31;68030;51.980;5.646;2024-02-28T06:39:10;6.9;67.0
78696;SHT31;68030;51.980;5.646;2024-02-28T06:41:39;6.9;66.8
78696;SHT31;68030;51.980;5.646;2024-02-28T06:44:07;7.0;66.6
78696;SHT31;68030;51.980;5.646;2024-02-28T06:46:37;7.0;66.4
78696;SHT31;68030;51.980;5.646;2024-02-28T06:49:08;7.0;66.3
78696;SHT31;68030;51.980;5.646;2024-02-28T06:51:36;7.1;66.1
78696;SHT31;68030;51.980;5.646;2024-02-28T06:54:05;7.1;66.1
78696;SHT31;68030;51.980;5.646;2024-02-28T06:56:33;7.1;66.0
78696;SHT31;68030;51.980;5.646;2024-02-28T06:59:02;7.1;65.9
78696;SHT31;68030;51.980;5.646;2024-02-28T07:01:33;7.2;65.8
78696;SHT31;68030;51.980;5.646;2024-02-28T07:04:02;7.2;66.0
78696;SHT31;68030;51.980;5.646;2024-02-28T07:06:32;7.2;66.0
78696;SHT31;68030;51.980;5.646;2024-02-28T07:09:01;7.2;65.7
78696;SHT31;68030;51.980;5.646;2024-02-28T07:11:30;7.2;65.6
78696;SHT31;68030;51.980;5.646;2024-02-28T07:13:58;7.3;65.7
78696;SHT31;68030;51.980;5.646;2024-02-28T07:16:28;7.3;65.7
78696;SHT31;68030;51.980;5.646;2024-02-28T07:19:00;7.3;65.5
78696;SHT31;68030;51.980;5.646;2024-02-28T07:21:29;7.3;65.6
78696;SHT31;68030;51.980;5.646;2024-02-28T07:23:58;7.4;65.8
78696;SHT31;68030;51.980;5.646;2024-02-28T07:26:27;7.4;65.5
78696;SHT31;68030;51.980;5.646;2024-02-28T07:28:56;7.4;65.6
78696;SHT31;68030;51.980;5.646;2024-02-28T07:31:26;7.5;65.3
78696;SHT31;68030;51.980;5.646;2024-02-28T07:33:55;7.5;65.0
78696;SHT31;68030;51.980;5.646;2024-02-28T07:36:24;7.5;64.9
78696;SHT31;68030;51.980;5.646;2024-02-28T07:38:54;7.6;65.0
78696;SHT31;68030;51.980;5.646;2024-02-28T07:41:23;7.6;64.8
78696;SHT31;68030;51.980;5.646;2024-02-28T07:43:51;7.7;64.9
78696;SHT31;68030;51.980;5.646;2024-02-28T07:46:20;7.7;64.5
78696;SHT31;68030;51.980;5.646;2024-02-28T07:48:48;7.8;64.4
78696;SHT31;68030;51.980;5.646;2024-02-28T07:51:18;7.8;64.4
78696;SHT31;68030;51.980;5.646;2024-02-28T07:53:46;7.8;64.0
78696;SHT31;68030;51.980;5.646;2024-02-28T07:56:18;7.8;64.2
78696;SHT31;68030;51.980;5.646;2024-02-28T07:58:47;7.9;63.7
78696;SHT31;68030;51.980;5.646;2024-02-28T08:01:16;7.9;63.8
78696;SHT31;68030;51.980;5.646;2024-02-28T08:03:45;7.9;63.7
78696;SHT31;68030;51.980;5.646;2024-02-28T08:06:13;7.9;63.9
78696;SHT31;68030;51.980;5.646;2024-02-28T08:08:43;7.9;63.6
78696;SHT31;68030;51.980;5.646;2024-02-28T08:11:13;8.0;63.4
78696;SHT31;68030;51.980;5.646;2024-02-28T08:13:42;8.0;63.5
78696;SHT31;68030;51.980;5.646;2024-02-28T08:16:11;8.0;63.8
78696;SHT31;68030;51.980;5.646;2024-02-28T08:18:39;8.0;63.5
78696;SHT31;68030;51.980;5.646;2024-02-28T08:21:08;8.0;63.5
78696;SHT31;68030;51.980;5.646;2024-02-28T08:23:37;8.0;63.6
78696;SHT31;68030;51.980;5.646;2024-02-28T08:26:06;8.0;63.7
78696;SHT31;68030;51.980;5.646;2024-02-28T08:28:34;8.0;63.8
78696;SHT31;68030;51.980;5.646;2024-02-28T08:31:03;8.0;64.0
78696;SHT31;68030;51.980;5.646;2024-02-28T08:33:31;8.1;63.7
78696;SHT31;68030;51.980;5.646;2024-02-28T08:36:00;8.1;64.0
78696;SHT31;68030;51.980;5.646;2024-02-28T08:38:30;8.1;63.7
78696;SHT31;68030;51.980;5.646;2024-02-28T08:40:58;8.1;64.0
78696;SHT31;68030;51.980;5.646;2024-02-28T08:43:27;8.1;64.0
78696;SHT31;68030;51.980;5.646;2024-02-28T08:45:56;8.2;63.9
78696;SHT31;68030;51.980;5.646;2024-02-28T08:48:24;8.2;63.8
78696;SHT31;68030;51.980;5.646;2024-02-28T08:50:53;8.2;63.5
78696;SHT31;68030;51.980;5.646;2024-02-28T08:53:21;8.3;63.4
78696;SHT31;68030;51.980;5.646;2024-02-28T08:55:50;8.3;63.5
78696;SHT31;68030;51.980;5.646;2024-02-28T08:58:19;8.3;63.3
78696;SHT31;68030;51.980;5.646;2024-02-28T09:00:47;8.4;63.4
78696;SHT31;68030;51.980;5.646;2024-02-28T09:03:15;8.4;63.1
78696;SHT31;68030;51.980;5.646;2024-02-28T09:05:45;8.4;63.1
78696;SHT31;68030;51.980;5.646;2024-02-28T09:08:15;8.5;63.0
78696;SHT31;68030;51.980;5.646;2024-02-28T09:10:43;8.5;63.1
78696;SHT31;68030;51.980;5.646;2024-02-28T09:13:13;8.5;63.3
78696;SHT31;68030;51.980;5.646;2024-02-28T09:15:44;8.5;63.2
78696;SHT31;68030;51.980;5.646;2024-02-28T09:18:15;8.5;63.2
78696;SHT31;68030;51.980;5.646;2024-02-28T09:20:43;8.6;63.5
78696;SHT31;68030;51.980;5.646;2024-02-28T09:23:14;8.6;63.8
78696;SHT31;68030;51.980;5.646;2024-02-28T09:25:42;8.6;64.1
78696;SHT31;68030;51.980;5.646;2024-02-28T09:28:11;8.6;64.4
78696;SHT31;68030;51.980;5.646;2024-02-28T09:30:42;8.6;64.6
78696;SHT31;68030;51.980;5.646;2024-02-28T09:33:14;8.6;64.7
78696;SHT31;68030;51.980;5.646;2024-02-28T09:35:45;8.6;65.1
78696;SHT31;68030;51.980;5.646;2024-02-28T09:38:14;8.7;65.7
78696;SHT31;68030;51.980;5.646;2024-02-28T09:40:46;8.7;65.6
78696;SHT31;68030;51.980;5.646;2024-02-28T09:43:19;8.8;65.1
78696;SHT31;68030;51.980;5.646;2024-02-28T09:45:49;8.9;64.7
78696;SHT31;68030;51.980;5.646;2024-02-28T09:48:19;8.9;64.4
78696;SHT31;68030;51.980;5.646;2024-02-28T09:50:48;9.0;64.7
78696;SHT31;68030;51.980;5.646;2024-02-28T09:53:17;9.0;64.8
78696;SHT31;68030;51.980;5.646;2024-02-28T09:55:46;9.1;64.7
78696;SHT31;68030;51.980;5.646;2024-02-28T09:58:15;9.1;64.8
78696;SHT31;68030;51.980;5.646;2024-02-28T10:00:46;9.2;64.2
78696;SHT31;68030;51.980;5.646;2024-02-28T10:03:17;9.3;63.9
78696;SHT31;68030;51.980;5.646;2024-02-28T10:05:47;9.3;63.9
78696;SHT31;68030;51.980;5.646;2024-02-28T10:08:16;9.4;63.9
78696;SHT31;68030;51.980;5.646;2024-02-28T10:10:48;9.4;63.6
78696;SHT31;68030;51.980;5.646;2024-02-28T10:13:21;9.5;63.4
78696;SHT31;68030;51.980;5.646;2024-02-28T10:15:50;9.5;63.7
78696;SHT31;68030;51.980;5.646;2024-02-28T10:18:18;9.5;63.9
78696;SHT31;68030;51.980;5.646;2024-02-28T10:20:47;9.6;64.3
78696;SHT31;68030;51.980;5.646;2024-02-28T10:23:16;9.6;64.0
78696;SHT31;68030;51.980;5.646;2024-02-28T10:25:48;9.7;63.6
78696;SHT31;68030;51.980;5.646;2024-02-28T10:28:17;9.8;63.5
78696;SHT31;68030;51.980;5.646;2024-02-28T10:30:45;9.8;63.7
78696;SHT31;68030;51.980;5.646;2024-02-28T10:33:15;9.9;63.7
78696;SHT31;68030;51.980;5.646;2024-02-28T10:35:44;9.9;63.7
78696;SHT31;68030;51.980;5.646;2024-02-28T10:38:13;10.0;63.8
78696;SHT31;68030;51.980;5.646;2024-02-28T10:40:43;10.1;63.4
78696;SHT31;68030;51.980;5.646;2024-02-28T10:43:12;10.2;63.5
78696;SHT31;68030;51.980;5.646;2024-02-28T10:45:44;10.3;63.0
78696;SHT31;68030;51.980;5.646;2024-02-28T10:48:14;10.4;63.0
78696;SHT31;68030;51.980;5.646;2024-02-28T10:50:43;10.5;62.9
78696;SHT31;68030;51.980;5.646;2024-02-28T10:53:14;10.6;62.9
78696;SHT31;68030;51.980;5.646;2024-02-28T10:55:48;10.7;62.5
78696;SHT31;68030;51.980;5.646;2024-02-28T10:58:19;10.8;61.9
78696;SHT31;68030;51.980;5.646;2024-02-28T11:00:50;11.0;61.4
78696;SHT31;68030;51.980;5.646;2024-02-28T11:03:22;11.1;61.1
78696;SHT31;68030;51.980;5.646;2024-02-28T11:05:50;11.1;60.9
78696;SHT31;68030;51.980;5.646;2024-02-28T11:08:24;11.2;61.0
78696;SHT31;68030;51.980;5.646;2024-02-28T11:11:01;11.3;61.1
78696;SHT31;68030;51.980;5.646;2024-02-28T11:13:30;11.4;61.0
78696;SHT31;68030;51.980;5.646;2024-02-28T11:16:09;11.5;60.7
78696;SHT31;68030;51.980;5.646;2024-02-28T11:18:50;11.6;60.5
78696;SHT31;68030;51.980;5.646;2024-02-28T11:21:19;11.7;60.3
78696;SHT31;68030;51.980;5.646;2024-02-28T11:23:48;11.8;59.8
78696;SHT31;68030;51.980;5.646;2024-02-28T11:26:18;11.9;59.7
78696;SHT31;68030;51.980;5.646;2024-02-28T11:28:47;11.9;59.6
78696;SHT31;68030;51.980;5.646;2024-02-28T11:31:16;12.0;59.6
78696;SHT31;68030;51.980;5.646;2024-02-28T11:33:45;12.1;59.2
78696;SHT31;68030;51.980;5.646;2024-02-28T11:36:16;12.2;58.7
78696;SHT31;68030;51.980;5.646;2024-02-28T11:38:47;12.2;58.7
78696;SHT31;68030;51.980;5.646;2024-02-28T11:41:28;12.3;59.0
78696;SHT31;68030;51.980;5.646;2024-02-28T11:43:56;12.3;59.1
78696;SHT31;68030;51.980;5.646;2024-02-28T11:46:25;12.4;58.9
78696;SHT31;68030;51.980;5.646;2024-02-28T11:48:54;12.5;58.8
78696;SHT31;68030;51.980;5.646;2024-02-28T11:51:24;12.5;58.8
78696;SHT31;68030;51.980;5.646;2024-02-28T11:53:52;12.6;58.7
78696;SHT31;68030;51.980;5.646;2024-02-28T11:56:21;12.7;58.7
78696;SHT31;68030;51.980;5.646;2024-02-28T11:58:53;12.7;58.4
78696;SHT31;68030;51.980;5.646;2024-02-28T12:01:33;12.8;58.1
78696;SHT31;68030;51.980;5.646;2024-02-28T12:04:05;12.9;58.3
78696;SHT31;68030;51.980;5.646;2024-02-28T12:06:35;12.9;57.9
78696;SHT31;68030;51.980;5.646;2024-02-28T12:09:06;13.0;57.9
78696;SHT31;68030;51.980;5.646;2024-02-28T12:11:36;13.0;57.9
78696;SHT31;68030;51.980;5.646;2024-02-28T12:14:07;13.1;57.7
78696;SHT31;68030;51.980;5.646;2024-02-28T12:16:36;13.1;57.6
78696;SHT31;68030;51.980;5.646;2024-02-28T12:19:07;13.1;57.7
78696;SHT31;68030;51.980;5.646;2024-02-28T12:21:36;13.1;57.6
78696;SHT31;68030;51.980;5.646;2024-02-28T12:24:07;13.2;57.8
78696;SHT31;68030;51.980;5.646;2024-02-28T12:26:38;13.2;57.6
78696;SHT31;68030;51.980;5.646;2024-02-28T12:29:07;13.2;57.7
78696;SHT31;68030;51.980;5.646;2024-02-28T12:31:37;13.2;57.7
78696;SHT31;68030;51.980;5.646;2024-02-28T12:34:06;13.2;57.5
78696;SHT31;68030;51.980;5.646;2024-02-28T12:36:35;13.3;57.4
78696;SHT31;68030;51.980;5.646;2024-02-28T12:39:03;13.3;57.7
78696;SHT31;68030;51.980;5.646;2024-02-28T12:41:32;13.3;57.5
78696;SHT31;68030;51.980;5.646;2024-02-28T12:44:05;13.3;57.4
78696;SHT31;68030;51.980;5.646;2024-02-28T12:46:35;13.3;57.9
78696;SHT31;68030;51.980;5.646;2024-02-28T12:49:04;13.3;57.8
78696;SHT31;68030;51.980;5.646;2024-02-28T12:51:42;13.3;57.9
78696;SHT31;68030;51.980;5.646;2024-02-28T12:54:13;13.3;57.9
78696;SHT31;68030;51.980;5.646;2024-02-28T12:56:43;13.4;57.7
78696;SHT31;68030;51.980;5.646;2024-02-28T12:59:14;13.4;57.7
78696;SHT31;68030;51.980;5.646;2024-02-28T13:01:43;13.4;57.5
78696;SHT31;68030;51.980;5.646;2024-02-28T13:04:14;13.4;57.3
78696;SHT31;68030;51.980;5.646;2024-02-28T13:06:44;13.4;57.5
78696;SHT31;68030;51.980;5.646;2024-02-28T13:09:13;13.5;57.5
78696;SHT31;68030;51.980;5.646;2024-02-28T13:11:41;13.5;57.4
78696;SHT31;68030;51.980;5.646;2024-02-28T13:14:10;13.5;57.6
78696;SHT31;68030;51.980;5.646;2024-02-28T13:16:38;13.6;57.6
78696;SHT31;68030;51.980;5.646;2024-02-28T13:19:07;13.6;57.2
78696;SHT31;68030;51.980;5.646;2024-02-28T13:21:35;13.6;57.5
78696;SHT31;68030;51.980;5.646;2024-02-28T13:24:05;13.7;57.2
78696;SHT31;68030;51.980;5.646;2024-02-28T13:26:34;13.7;57.2
78696;SHT31;68030;51.980;5.646;2024-02-28T13:29:03;13.8;57.0
78696;SHT31;68030;51.980;5.646;2024-02-28T13:31:31;13.9;57.1
78696;SHT31;68030;51.980;5.646;2024-02-28T13:34:00;13.9;56.4
78696;SHT31;68030;51.980;5.646;2024-02-28T13:36:29;14.0;56.2
78696;SHT31;68030;51.980;5.646;2024-02-28T13:38:58;14.1;55.7
78696;SHT31;68030;51.980;5.646;2024-02-28T13:41:27;14.1;55.9
78696;SHT31;68030;51.980;5.646;2024-02-28T13:43:56;14.1;55.7
78696;SHT31;68030;51.980;5.646;2024-02-28T13:46:24;14.1;55.7
78696;SHT31;68030;51.980;5.646;2024-02-28T13:48:53;14.1;55.4
78696;SHT31;68030;51.980;5.646;2024-02-28T13:51:21;14.1;55.8
78696;SHT31;68030;51.980;5.646;2024-02-28T13:53:50;14.1;56.0
78696;SHT31;68030;51.980;5.646;2024-02-28T13:56:20;14.1;55.9
78696;SHT31;68030;51.980;5.646;2024-02-28T13:58:51;14.1;56.3
78696;SHT31;68030;51.980;5.646;2024-02-28T14:01:19;14.2;56.3
78696;SHT31;68030;51.980;5.646;2024-02-28T14:03:49;14.3;55.8
78696;SHT31;68030;51.980;5.646;2024-02-28T14:06:17;14.3;55.7
78696;SHT31;68030;51.980;5.646;2024-02-28T14:08:46;14.4;55.4
78696;SHT31;68030;51.980;5.646;2024-02-28T14:11:15;14.4;55.2
78696;SHT31;68030;51.980;5.646;2024-02-28T14:13:45;14.5;55.1
78696;SHT31;68030;51.980;5.646;2024-02-28T14:16:14;14.5;55.0
78696;SHT31;68030;51.980;5.646;2024-02-28T14:18:44;14.5;54.9
78696;SHT31;68030;51.980;5.646;2024-02-28T14:21:14;14.6;54.7
78696;SHT31;68030;51.980;5.646;2024-02-28T14:23:42;14.6;54.5
78696;SHT31;68030;51.980;5.646;2024-02-28T14:26:11;14.6;54.8
78696;SHT31;68030;51.980;5.646;2024-02-28T14:28:40;14.6;54.4
78696;SHT31;68030;51.980;5.646;2024-02-28T14:31:11;14.5;54.5
78696;SHT31;68030;51.980;5.646;2024-02-28T14:33:39;14.5;54.3
78696;SHT31;68030;51.980;5.646;2024-02-28T14:36:08;14.5;54.4
78696;SHT31;68030;51.980;5.646;2024-02-28T14:38:37;14.4;54.6
78696;SHT31;68030;51.980;5.646;2024-02-28T14:41:06;14.3;54.7
78696;SHT31;68030;51.980;5.646;2024-02-28T14:43:37;14.3;55.0
78696;SHT31;68030;51.980;5.646;2024-02-28T14:46:05;14.2;55.3
78696;SHT31;68030;51.980;5.646;2024-02-28T14:48:36;14.1;55.4
78696;SHT31;68030;51.980;5.646;2024-02-28T14:51:05;14.1;55.9
78696;SHT31;68030;51.980;5.646;2024-02-28T14:53:35;14.0;56.1
78696;SHT31;68030;51.980;5.646;2024-02-28T14:56:04;14.0;56.4
78696;SHT31;68030;51.980;5.646;2024-02-28T14:58:33;13.9;56.7
78696;SHT31;68030;51.980;5.646;2024-02-28T15:01:04;13.9;56.7
78696;SHT31;68030;51.980;5.646;2024-02-28T15:03:32;13.9;57.1
78696;SHT31;68030;51.980;5.646;2024-02-28T15:06:02;13.8;57.3
78696;SHT31;68030;51.980;5.646;2024-02-28T15:08:31;13.8;57.5
78696;SHT31;68030;51.980;5.646;2024-02-28T15:11:00;13.8;57.5
78696;SHT31;68030;51.980;5.646;2024-02-28T15:13:28;13.7;57.1
78696;SHT31;68030;51.980;5.646;2024-02-28T15:15:57;13.7;57.1
78696;SHT31;68030;51.980;5.646;2024-02-28T15:18:25;13.7;57.1
78696;SHT31;68030;51.980;5.646;2024-02-28T15:20:54;13.6;57.6
78696;SHT31;68030;51.980;5.646;2024-02-28T15:23:23;13.6;57.6
78696;SHT31;68030;51.980;5.646;2024-02-28T15:25:51;13.6;57.7
78696;SHT31;68030;51.980;5.646;2024-02-28T15:28:22;13.6;57.8
78696;SHT31;68030;51.980;5.646;2024-02-28T15:30:53;13.5;57.8
78696;SHT31;68030;51.980;5.646;2024-02-28T15:33:22;13.5;57.5
78696;SHT31;68030;51.980;5.646;2024-02-28T15:35:50;13.5;57.6
78696;SHT31;68030;51.980;5.646;2024-02-28T15:38:19;13.4;57.7
78696;SHT31;68030;51.980;5.646;2024-02-28T15:40:47;13.4;57.9
78696;SHT31;68030;51.980;5.646;2024-02-28T15:43:15;13.3;58.1
78696;SHT31;68030;51.980;5.646;2024-02-28T15:45:44;13.3;58.0
78696;SHT31;68030;51.980;5.646;2024-02-28T15:48:15;13.3;58.3
78696;SHT31;68030;51.980;5.646;2024-02-28T15:50:43;13.2;58.3
78696;SHT31;68030;51.980;5.646;2024-02-28T15:53:14;13.2;58.5
78696;SHT31;68030;51.980;5.646;2024-02-28T15:55:43;13.2;58.7
78696;SHT31;68030;51.980;5.646;2024-02-28T15:58:12;13.1;58.7
78696;SHT31;68030;51.980;5.646;2024-02-28T16:00:40;13.1;58.9
78696;SHT31;68030;51.980;5.646;2024-02-28T16:03:09;13.1;58.8
78696;SHT31;68030;51.980;5.646;2024-02-28T16:05:38;13.1;58.9
78696;SHT31;68030;51.980;5.646;2024-02-28T16:08:07;13.1;58.9
78696;SHT31;68030;51.980;5.646;2024-02-28T16:10:36;13.1;59.0
78696;SHT31;68030;51.980;5.646;2024-02-28T16:13:05;13.1;59.0
78696;SHT31;68030;51.980;5.646;2024-02-28T16:15:34;13.1;59.0
78696;SHT31;68030;51.980;5.646;2024-02-28T16:18:03;13.1;58.7
78696;SHT31;68030;51.980;5.646;2024-02-28T16:20:34;13.1;59.0
78696;SHT31;68030;51.980;5.646;2024-02-28T16:23:02;13.1;59.0
78696;SHT31;68030;51.980;5.646;2024-02-28T16:25:31;13.1;59.2